Big Bear Station Historical Data
Daily Summary for February 5, 2017 Units:  English    Metric   Both
« Previous Day
Next Day »
Daily Weekly Monthly Yearly Custom
  High: Low: Average:
Temperature: 49.6 °F 21.6 °F 33.6 °F
Dew Point: 28.8 °F 7.1 °F 19.6 °F
Humidity: 93 % 19 % 62 %
Wind Speed: 12.5 mph 0.0 mph 1.5 mph
Wind Gust: -999.0 mph - -
Wind:- - WSW
Pressure: 30.14 in 30.02 in -
Precipitation: 0.00 in    
Historical Graphs
 
 
Tabular Data for February 5, 2017
Time Temperature Dew Point Pressure Wind Wind Speed Wind Gust Humidity Rainfall Rate (Hourly)
00:02 25.0 °F 20.0 °F 30.14 in Calm   -999.0 mph 81 % 0 in
00:17 25.2 °F 20.8 °F 30.13 in Calm   -999.0 mph 83 % 0 in
00:33 24.6 °F 19.9 °F 30.13 in Calm   -999.0 mph 82 % 0 in
00:48 24.4 °F 20.0 °F 30.13 in Calm   -999.0 mph 83 % 0 in
01:03 24.1 °F 20.0 °F 30.13 in Calm   -999.0 mph 84 % 0 in
01:18 24.6 °F 20.7 °F 30.13 in Calm   -999.0 mph 85 % 0 in
01:34 23.9 °F 20.0 °F 30.13 in Calm   -999.0 mph 85 % 0 in
01:49 24.4 °F 20.8 °F 30.13 in Calm   -999.0 mph 86 % 0 in
02:04 23.9 °F 20.0 °F 30.12 in Calm   -999.0 mph 85 % 0 in
02:19 23.4 °F 19.6 °F 30.12 in Calm   -999.0 mph 85 % 0 in
02:35 22.8 °F 20.0 °F 30.12 in Calm   -999.0 mph 89 % 0 in
02:50 23.2 °F 20.7 °F 30.11 in Calm   -999.0 mph 90 % 0 in
03:05 23.9 °F 20.9 °F 30.11 in Calm   -999.0 mph 88 % 0 in
03:21 23.0 °F 20.0 °F 30.11 in Calm   -999.0 mph 88 % 0 in
03:36 23.2 °F 20.7 °F 30.11 in Calm   -999.0 mph 90 % 0 in
03:51 22.5 °F 20.0 °F 30.11 in Calm   -999.0 mph 90 % 0 in
04:06 22.5 °F 20.0 °F 30.11 in Calm   -999.0 mph 90 % 0 in
04:21 22.6 °F 20.1 °F 30.11 in Calm   -999.0 mph 90 % 0 in
04:37 22.1 °F 19.6 °F 30.11 in Calm   -999.0 mph 90 % 0 in
04:52 22.1 °F 20.1 °F 30.11 in Calm   -999.0 mph 92 % 0 in
05:07 22.1 °F 19.9 °F 30.10 in Calm   -999.0 mph 91 % 0 in
05:22 21.7 °F 19.7 °F 30.10 in Calm   -999.0 mph 92 % 0 in
05:37 21.7 °F 19.7 °F 30.10 in Calm   -999.0 mph 92 % 0 in
05:53 22.1 °F 20.1 °F 30.10 in Calm   -999.0 mph 92 % 0 in
06:08 21.9 °F 19.7 °F 30.10 in Calm   -999.0 mph 91 % 0 in
06:23 21.6 °F 19.6 °F 30.11 in Calm   -999.0 mph 92 % 0 in
06:38 21.6 °F 19.6 °F 30.11 in Calm   -999.0 mph 92 % 0 in
06:54 21.7 °F 20.0 °F 30.11 in Calm   -999.0 mph 93 % 0 in
07:09 21.6 °F 19.6 °F 30.11 in Calm   -999.0 mph 92 % 0 in
07:24 21.9 °F 20.2 °F 30.11 in Calm   -999.0 mph 93 % 0 in
07:39 22.8 °F 20.8 °F 30.11 in Calm   -999.0 mph 92 % 0 in
07:54 23.4 °F 21.4 °F 30.12 in Calm   -999.0 mph 92 % 0 in
08:10 24.1 °F 21.9 °F 30.12 in Calm   -999.0 mph 91 % 0 in
08:25 24.8 °F 22.5 °F 30.12 in Calm   -999.0 mph 91 % 0 in
08:40 26.2 °F 23.4 °F 30.12 in Calm   -999.0 mph 89 % 0 in
08:55 30.6 °F 25.5 °F 30.11 in Calm   -999.0 mph 81 % 0 in
09:10 32.0 °F 27.1 °F 30.12 in Calm   -999.0 mph 82 % 0 in
09:26 34.0 °F 28.8 °F 30.11 in Calm   -999.0 mph 81 % 0 in
09:41 37.2 °F 28.0 °F 30.11 in Calm   -999.0 mph 69 % 0 in
09:57 41.9 °F 26.0 °F 30.11 in NNW 1.7 mph -999.0 mph 53 % 0 in
10:12 45.3 °F 27.3 °F 30.11 in SSW 1.1 mph -999.0 mph 49 % 0 in
10:27 46.8 °F 26.6 °F 30.10 in WNW 2.7 mph -999.0 mph 45 % 0 in
10:43 48.6 °F 25.9 °F 30.09 in NW 1.7 mph -999.0 mph 41 % 0 in
10:58 49.3 °F 24.7 °F 30.08 in NW 1.7 mph -999.0 mph 38 % 0 in
11:13 49.6 °F 24.4 °F 30.08 in NW 1.1 mph -999.0 mph 37 % 0 in
11:28 48.0 °F 22.9 °F 30.07 in WNW 7.3 mph -999.0 mph 37 % 0 in
11:43 47.3 °F 21.7 °F 30.07 in NNW 1.7 mph -999.0 mph 36 % 0 in
11:59 47.3 °F 23.0 °F 30.06 in WNW 2.2 mph -999.0 mph 38 % 0 in
12:14 46.9 °F 24.4 °F 30.05 in North 3.7 mph -999.0 mph 41 % 0 in
12:29 46.0 °F 24.2 °F 30.05 in NW 9.9 mph -999.0 mph 42 % 0 in
12:45 47.7 °F 23.3 °F 30.05 in NNW 7.3 mph -999.0 mph 38 % 0 in
13:00 46.8 °F 23.7 °F 30.05 in SSW 1.7 mph -999.0 mph 40 % 0 in
13:15 46.6 °F 21.1 °F 30.05 in NW 3.7 mph -999.0 mph 36 % 0 in
13:30 46.9 °F 18.6 °F 30.05 in WNW 1.7 mph -999.0 mph 32 % 0 in
13:46 48.0 °F 9.9 °F 30.04 in South 1.7 mph -999.0 mph 21 % 0 in
14:01 48.4 °F 9.1 °F 30.03 in Calm   -999.0 mph 20 % 0 in
14:16 47.3 °F 7.1 °F 30.03 in ESE 1.1 mph -999.0 mph 19 % 0 in
14:32 47.8 °F 8.6 °F 30.04 in NNE 2.2 mph -999.0 mph 20 % 0 in
14:47 46.9 °F 11.9 °F 30.03 in ESE 1.7 mph -999.0 mph 24 % 0 in
15:02 46.8 °F 15.4 °F 30.03 in NNW 2.2 mph -999.0 mph 28 % 0 in
15:18 44.6 °F 15.8 °F 30.05 in North 4.7 mph -999.0 mph 31 % 0 in
15:33 43.9 °F 18.6 °F 30.05 in West 1.7 mph -999.0 mph 36 % 0 in
15:48 43.2 °F 19.3 °F 30.05 in NW 2.7 mph -999.0 mph 38 % 0 in
16:03 40.8 °F 19.5 °F 30.05 in NNW 3.7 mph -999.0 mph 42 % 0 in
16:19 40.5 °F 19.2 °F 30.05 in NW 2.7 mph -999.0 mph 42 % 0 in
16:34 39.6 °F 18.9 °F 30.05 in NW 2.7 mph -999.0 mph 43 % 0 in
16:49 38.8 °F 16.5 °F 30.04 in Calm   -999.0 mph 40 % 0 in
17:04 38.1 °F 17.0 °F 30.04 in NW 1.7 mph -999.0 mph 42 % 0 in
17:20 37.8 °F 17.3 °F 30.04 in East 2.2 mph -999.0 mph 43 % 0 in
17:35 37.2 °F 16.2 °F 30.04 in WSW 1.7 mph -999.0 mph 42 % 0 in
17:50 36.5 °F 15.6 °F 30.04 in SSW 1.1 mph -999.0 mph 42 % 0 in
18:05 36.0 °F 15.1 °F 30.04 in NW 4.2 mph -999.0 mph 42 % 0 in
18:21 36.3 °F 13.1 °F 30.04 in NNE 1.7 mph -999.0 mph 38 % 0 in
18:36 36.7 °F 9.6 °F 30.04 in West 1.7 mph -999.0 mph 32 % 0 in
18:51 37.2 °F 10.0 °F 30.04 in Calm   -999.0 mph 32 % 0 in
19:07 38.5 °F 11.2 °F 30.03 in ESE 1.1 mph -999.0 mph 32 % 0 in
19:22 38.1 °F 9.4 °F 30.04 in SW 2.2 mph -999.0 mph 30 % 0 in
19:37 37.9 °F 8.4 °F 30.04 in SW 3.7 mph -999.0 mph 29 % 0 in
19:52 36.9 °F 14.2 °F 30.03 in WNW 3.7 mph -999.0 mph 39 % 0 in
20:08 34.5 °F 21.6 °F 30.04 in WSW 1.7 mph -999.0 mph 59 % 0 in
20:23 33.1 °F 23.0 °F 30.03 in WSW 2.2 mph -999.0 mph 66 % 0 in
20:38 33.6 °F 17.8 °F 30.04 in WNW 2.2 mph -999.0 mph 52 % 0 in
20:54 33.8 °F 17.6 °F 30.03 in WNW 2.7 mph -999.0 mph 51 % 0 in
21:09 33.1 °F 17.8 °F 30.03 in Calm   -999.0 mph 53 % 0 in
21:24 32.5 °F 11.4 °F 30.03 in Calm   -999.0 mph 41 % 0 in
21:40 33.3 °F 17.1 °F 30.02 in NNW 6.3 mph -999.0 mph 51 % 0 in
21:55 32.2 °F 22.5 °F 30.02 in NNE 12.5 mph -999.0 mph 67 % 0 in
22:10 31.3 °F 25.2 °F 30.02 in WNW 5.8 mph -999.0 mph 78 % 0 in
22:25 31.1 °F 24.7 °F 30.02 in WNW 3.7 mph -999.0 mph 77 % 0 in
22:40 30.9 °F 24.8 °F 30.03 in NW 2.2 mph -999.0 mph 78 % 0 in
22:56 31.6 °F 24.3 °F 30.04 in WNW 2.2 mph -999.0 mph 74 % 0 in
23:11 32.4 °F 20.8 °F 30.04 in SW 2.2 mph -999.0 mph 62 % 0 in
23:26 32.0 °F 20.8 °F 30.04 in Calm   -999.0 mph 63 % 0 in
23:41 32.0 °F 20.8 °F 30.04 in Calm   -999.0 mph 63 % 0 in
23:57 32.0 °F 22.6 °F 30.04 in West 2.2 mph -999.0 mph 68 % 0 in
Big Bear CA Weather
Compliments of Weather Underground - 1.5 mb